createdAt,value
2019-04-23T00:00:39.224Z,96851.00
2019-04-23T00:02:58.554Z,96853.45
2019-04-23T00:05:27.231Z,96848.20
2019-04-23T00:07:39.143Z,96847.56
2019-04-23T00:09:40.934Z,96842.47
2019-04-23T00:11:51.634Z,96857.06
2019-04-23T00:14:06.010Z,96843.78
2019-04-23T00:16:17.009Z,96843.61
2019-04-23T00:18:36.959Z,96852.46
2019-04-23T00:20:43.071Z,96841.80
2019-04-23T00:23:06.088Z,96848.36
2019-04-23T00:25:47.092Z,96851.16
2019-04-23T00:27:47.710Z,96846.08
2019-04-23T00:29:56.004Z,96843.64
2019-04-23T00:32:15.706Z,96847.54
2019-04-23T00:34:24.652Z,96841.48
2019-04-23T00:41:05.726Z,96837.87
2019-04-23T00:43:22.990Z,96836.21
2019-04-23T00:45:33.156Z,96833.94
2019-04-23T00:49:59.933Z,96821.66
2019-04-23T00:52:15.050Z,96821.63
2019-04-23T00:54:26.277Z,96816.53
2019-04-23T00:58:51.454Z,96812.59
2019-04-23T01:01:00.519Z,96820.31
2019-04-23T01:03:14.007Z,96820.78
2019-04-23T01:07:38.572Z,96812.28
2019-04-23T01:12:07.473Z,96805.73
2019-04-23T01:14:20.202Z,96807.85
2019-04-23T01:16:32.878Z,96811.92
2019-04-23T01:18:51.466Z,96811.60
2019-04-23T01:20:54.525Z,96813.55
2019-04-23T01:23:03.382Z,96809.66
2019-04-23T01:25:30.358Z,96802.44
2019-04-23T01:28:04.319Z,96806.05
2019-04-23T01:30:18.055Z,96804.88
2019-04-23T01:32:34.869Z,96806.37
2019-04-23T01:34:49.627Z,96803.56
2019-04-23T01:36:56.046Z,96803.42
2019-04-23T01:39:14.313Z,96802.75
2019-04-23T01:41:26.547Z,96804.69
2019-04-23T01:43:36.561Z,96806.81
2019-04-23T01:45:47.881Z,96798.45
2019-04-23T01:48:00.000Z,96791.23
2019-04-23T01:52:31.883Z,96791.90
2019-04-23T01:54:38.491Z,96785.17
2019-04-23T01:56:49.383Z,96779.92
2019-04-23T01:59:06.115Z,96774.69
2019-04-23T02:01:20.806Z,96784.97
2019-04-23T02:03:34.868Z,96776.61
2019-04-23T02:12:27.715Z,96767.59
2019-04-23T02:14:39.033Z,96766.59
2019-04-23T02:16:50.279Z,96771.80
2019-04-23T02:19:03.150Z,96771.30
2019-04-23T02:21:22.613Z,96768.63
2019-04-23T02:28:09.156Z,96774.66
2019-04-23T02:30:40.261Z,96777.77
2019-04-23T02:32:37.723Z,96773.86
2019-04-23T02:36:59.903Z,96774.16
2019-04-23T02:39:13.102Z,96772.02
2019-04-23T02:43:50.999Z,96772.66
2019-04-23T02:48:19.756Z,96774.05
2019-04-23T02:50:34.866Z,96772.73
2019-04-23T02:52:34.221Z,96769.28
2019-04-23T02:54:50.423Z,96769.30
2019-04-23T02:59:21.432Z,96764.67
2019-04-23T03:01:31.683Z,96765.34
2019-04-23T03:05:50.672Z,96761.41
2019-04-23T03:07:59.923Z,96757.29
2019-04-23T03:10:24.660Z,96747.95
2019-04-23T03:12:31.813Z,96754.61
2019-04-23T03:14:52.900Z,96752.18
2019-04-23T03:19:13.594Z,96749.03
2019-04-23T03:21:31.212Z,96751.25
2019-04-23T03:24:01.545Z,96754.52
2019-04-23T03:26:31.619Z,96755.63
2019-04-23T03:28:38.120Z,96748.75
2019-04-23T03:39:55.030Z,96744.38
2019-04-23T03:41:50.317Z,96748.10
2019-04-23T03:44:14.515Z,96750.98
2019-04-23T03:48:38.773Z,96741.63
2019-04-23T03:52:44.835Z,96726.45
2019-04-23T03:55:27.905Z,96724.30
2019-04-23T04:01:45.463Z,96724.02
2019-04-23T04:04:20.319Z,96722.25
2019-04-23T04:10:46.629Z,96715.16
2019-04-23T04:15:12.084Z,96715.02
2019-04-23T04:17:17.909Z,96709.12
2019-04-23T04:24:05.456Z,96715.44
2019-04-23T04:26:13.248Z,96710.67
2019-04-23T04:30:43.172Z,96703.95
2019-04-23T04:33:02.318Z,96701.64
2019-04-23T04:35:20.978Z,96702.65
2019-04-23T04:37:40.497Z,96702.26
2019-04-23T04:39:29.280Z,96708.94
2019-04-23T04:48:18.095Z,96704.71
2019-04-23T04:50:32.797Z,96698.59
2019-04-23T04:52:47.032Z,96696.12
2019-04-23T04:54:58.044Z,96698.31
2019-04-23T04:59:26.280Z,96701.53
2019-04-23T05:03:36.290Z,96699.44
2019-04-23T05:08:52.899Z,96702.39
2019-04-23T05:10:36.303Z,96702.52
2019-04-23T05:12:59.160Z,96700.78
2019-04-23T05:17:13.505Z,96693.80
2019-04-23T05:19:29.836Z,96696.41
2019-04-23T05:21:41.261Z,96698.53
2019-04-23T05:23:43.050Z,96698.23
2019-04-23T05:26:02.346Z,96694.81
2019-04-23T05:30:23.305Z,96686.32
2019-04-23T05:32:32.796Z,96684.09
2019-04-23T05:34:52.119Z,96689.51
2019-04-23T05:37:01.916Z,96690.70
2019-04-23T05:39:20.831Z,96691.39
2019-04-23T05:43:40.910Z,96691.71
2019-04-23T05:45:46.587Z,96687.41
2019-04-23T05:48:13.364Z,96685.81
2019-04-23T05:50:29.816Z,96689.42
2019-04-23T05:52:29.741Z,96685.89
2019-04-23T05:54:44.918Z,96682.51
2019-04-23T05:56:56.697Z,96688.08
2019-04-23T05:59:14.627Z,96689.27
2019-04-23T06:03:44.358Z,96680.36
2019-04-23T06:06:01.145Z,96681.56
2019-04-23T06:08:11.607Z,96680.27
2019-04-23T06:10:24.177Z,96683.73
2019-04-23T06:12:31.917Z,96685.71
2019-04-23T06:14:47.400Z,96685.03
2019-04-23T06:16:59.004Z,96685.03
2019-04-23T06:19:14.176Z,96686.84
2019-04-23T06:21:26.828Z,96690.77
2019-04-23T06:23:53.487Z,96681.91
2019-04-23T06:28:08.203Z,96680.67
2019-04-23T06:30:17.747Z,96686.23
2019-04-23T06:32:29.831Z,96680.08
2019-04-23T06:34:42.847Z,96681.09
2019-04-23T06:36:51.418Z,96680.78
2019-04-23T06:39:00.835Z,96682.41
2019-04-23T06:41:25.562Z,96682.11
2019-04-23T06:43:33.142Z,96682.44
2019-04-23T06:45:43.188Z,96679.83
2019-04-23T06:48:02.019Z,96680.01
2019-04-23T06:50:14.827Z,96674.14
2019-04-23T06:52:23.408Z,96673.52
2019-04-23T06:54:45.945Z,96670.77
2019-04-23T06:56:58.679Z,96670.63
2019-04-23T06:59:09.714Z,96668.00
2019-04-23T07:01:19.116Z,96668.82
2019-04-23T07:06:13.550Z,96661.61
2019-04-23T07:08:22.529Z,96669.31
2019-04-23T07:10:33.329Z,96669.95
2019-04-23T07:17:03.935Z,96660.19
2019-04-23T07:19:26.921Z,96666.38
2019-04-23T07:23:54.436Z,96660.67
2019-04-23T07:26:10.117Z,96658.55
2019-04-23T07:28:15.045Z,96654.94
2019-04-23T07:30:23.759Z,96649.87
2019-04-23T07:32:35.969Z,96658.06
2019-04-23T07:34:57.409Z,96659.03
2019-04-23T07:37:00.167Z,96657.38
2019-04-23T07:39:25.590Z,96657.05
2019-04-23T07:41:54.818Z,96654.89
2019-04-23T07:44:17.319Z,96656.33
2019-04-23T07:48:47.731Z,96649.69
2019-04-23T07:51:00.557Z,96649.55
2019-04-23T07:53:17.283Z,96645.19
2019-04-23T07:55:43.333Z,96641.19
2019-04-23T07:57:49.264Z,96640.66
2019-04-23T08:00:03.441Z,96640.88
2019-04-23T08:04:35.160Z,96636.62
2019-04-23T08:06:40.043Z,96641.31
2019-04-23T08:08:56.354Z,96640.97
2019-04-23T08:13:37.936Z,96631.25
2019-04-23T08:15:34.914Z,96629.42
2019-04-23T08:17:45.064Z,96632.56
2019-04-23T08:19:59.594Z,96628.31
2019-04-23T08:24:52.176Z,96625.02
2019-04-23T08:26:59.655Z,96621.74
2019-04-23T08:29:19.937Z,96626.53
2019-04-23T08:31:38.537Z,96622.24
2019-04-23T08:33:50.004Z,96631.03
2019-04-23T08:36:09.107Z,96625.34
2019-04-23T08:38:22.560Z,96622.19
2019-04-23T08:40:28.438Z,96621.97
2019-04-23T08:42:58.540Z,96623.28
2019-04-23T08:45:07.099Z,96623.41
2019-04-23T08:47:18.833Z,96622.52
2019-04-23T08:49:29.062Z,96625.95
2019-04-23T08:54:15.356Z,96618.23
2019-04-23T08:56:07.450Z,96622.75
2019-04-23T08:58:32.473Z,96628.88
2019-04-23T09:00:39.846Z,96627.91
2019-04-23T09:02:55.034Z,96623.42
2019-04-23T09:05:11.101Z,96628.22
2019-04-23T09:07:27.938Z,96629.68
2019-04-23T09:09:34.906Z,96619.53
2019-04-23T09:11:45.951Z,96623.36
2019-04-23T09:13:57.558Z,96618.22
2019-04-23T09:16:22.140Z,96613.60
2019-04-23T09:18:22.682Z,96608.44
2019-04-23T09:20:41.170Z,96618.09
2019-04-23T09:22:45.139Z,96612.11
2019-04-23T09:25:03.968Z,96625.52
2019-04-23T09:27:31.595Z,96631.58
2019-04-23T09:29:36.609Z,96630.30
2019-04-23T09:32:15.158Z,96629.06
2019-04-23T09:34:31.388Z,96627.47
2019-04-23T09:36:51.669Z,96630.47
2019-04-23T09:39:01.332Z,96622.41
2019-04-23T09:41:27.671Z,96618.75
2019-04-23T09:43:59.423Z,96608.55
2019-04-23T09:46:15.502Z,96613.90
2019-04-23T09:48:18.056Z,96608.84
2019-04-23T09:50:41.971Z,96612.47
2019-04-23T09:53:07.497Z,96611.86
2019-04-23T09:55:15.499Z,96610.77
2019-04-23T09:57:11.049Z,96609.81
2019-04-23T10:01:49.868Z,96609.36
2019-04-23T10:03:46.275Z,96605.55
2019-04-23T10:05:56.343Z,96606.70
2019-04-23T10:08:05.102Z,96602.08
2019-04-23T10:10:12.185Z,96611.22
2019-04-23T10:12:24.291Z,96602.23
2019-04-23T10:14:36.695Z,96603.98
2019-04-23T10:16:49.396Z,96600.93
2019-04-23T10:19:01.083Z,96599.03
2019-04-23T10:21:13.122Z,96597.22
2019-04-23T10:23:25.174Z,96591.83
2019-04-23T10:25:36.279Z,96592.76
2019-04-23T10:27:54.534Z,96587.88
2019-04-23T10:30:01.621Z,96587.37
2019-04-23T10:32:13.559Z,96585.34
2019-04-23T10:34:25.373Z,96586.96
2019-04-23T10:36:38.273Z,96575.12
2019-04-23T10:38:56.081Z,96583.80
2019-04-23T10:41:02.301Z,96588.17
2019-04-23T10:43:13.335Z,96579.02
2019-04-23T10:46:03.621Z,96581.72
2019-04-23T10:48:32.845Z,96582.42
2019-04-23T10:50:57.696Z,96587.63
2019-04-23T10:53:20.173Z,96582.34
2019-04-23T10:55:25.917Z,96584.66
2019-04-23T10:57:45.900Z,96583.55
2019-04-23T10:59:43.107Z,96580.69
2019-04-23T11:02:21.694Z,96583.44
2019-04-23T11:04:32.890Z,96587.09
2019-04-23T11:06:38.841Z,96582.11
2019-04-23T11:08:56.012Z,96584.76
2019-04-23T11:11:03.167Z,96584.64
2019-04-23T11:13:12.189Z,96587.97
2019-04-23T11:17:38.666Z,96584.28
2019-04-23T11:19:57.059Z,96583.16
2019-04-23T11:22:21.032Z,96585.75
2019-04-23T11:24:32.481Z,96582.86
2019-04-23T11:28:38.374Z,96587.25
2019-04-23T11:30:55.767Z,96579.69
2019-04-23T11:38:11.897Z,96584.67
2019-04-23T11:39:53.908Z,96586.19
2019-04-23T11:42:06.637Z,96577.98
2019-04-23T11:44:18.972Z,96577.44
2019-04-23T11:46:46.217Z,96581.45
2019-04-23T11:48:52.303Z,96579.74
2019-04-23T11:51:26.187Z,96583.88
2019-04-23T11:55:34.278Z,96582.37
2019-04-23T11:59:51.901Z,96582.48
2019-04-23T12:01:57.313Z,96581.72
2019-04-23T12:04:38.682Z,96582.31
2019-04-23T12:06:52.502Z,96579.21
2019-04-23T12:09:16.889Z,96579.20
2019-04-23T12:11:46.828Z,96578.89
2019-04-23T12:13:56.592Z,96578.76
2019-04-23T12:15:53.425Z,96585.91
2019-04-23T12:18:25.452Z,96583.81
2019-04-23T12:20:23.008Z,96580.35
2019-04-23T12:22:42.488Z,96583.00
2019-04-23T12:27:06.072Z,96581.41
2019-04-23T12:29:20.542Z,96579.42
2019-04-23T12:31:26.443Z,96572.80
2019-04-23T12:33:47.071Z,96571.09
2019-04-23T12:35:44.078Z,96568.34
2019-04-23T12:38:13.899Z,96571.40
2019-04-23T12:40:21.182Z,96565.63
2019-04-23T12:42:50.411Z,96563.63
2019-04-23T12:44:48.705Z,96570.72
2019-04-23T12:47:07.031Z,96567.84
2019-04-23T12:49:30.363Z,96567.05
2019-04-23T12:51:35.087Z,96565.11
2019-04-23T12:53:36.205Z,96558.03
2019-04-23T12:58:11.204Z,96557.39
2019-04-23T13:04:47.547Z,96552.01
2019-04-23T13:06:50.915Z,96553.12
2019-04-23T13:09:18.602Z,96548.75
2019-04-23T13:11:25.809Z,96545.37
2019-04-23T13:16:05.282Z,96546.53
2019-04-23T13:20:19.404Z,96545.89
2019-04-23T13:22:31.028Z,96545.49
2019-04-23T13:24:46.327Z,96537.97
2019-04-23T13:26:57.297Z,96539.25
2019-04-23T13:29:13.834Z,96538.57
2019-04-23T13:31:14.464Z,96540.34
2019-04-23T13:33:40.528Z,96538.85
2019-04-23T13:35:56.808Z,96536.64
2019-04-23T13:40:17.699Z,96539.17
2019-04-23T13:44:42.692Z,96541.21
2019-04-23T13:46:50.971Z,96535.53
2019-04-23T13:49:03.110Z,96537.61
2019-04-23T13:55:42.524Z,96536.34
2019-04-23T14:00:09.500Z,96533.56
2019-04-23T14:02:34.254Z,96536.71
2019-04-23T14:06:52.136Z,96541.88
2019-04-23T14:09:34.312Z,96545.78
2019-04-23T14:13:44.884Z,96543.34
2019-04-23T14:15:56.693Z,96539.80
2019-04-23T14:18:19.535Z,96534.06
2019-04-23T14:20:15.252Z,96538.84
2019-04-23T14:24:45.538Z,96535.00
2019-04-23T14:26:48.893Z,96539.79
2019-04-23T14:28:59.483Z,96527.63
2019-04-23T14:31:16.856Z,96532.13
2019-04-23T14:33:37.423Z,96530.59
2019-04-23T14:35:46.710Z,96531.61
2019-04-23T14:38:09.683Z,96521.00
2019-04-23T14:40:20.114Z,96526.91
2019-04-23T14:42:47.599Z,96526.62
2019-04-23T14:44:41.009Z,96520.82
2019-04-23T14:46:58.215Z,96516.84
2019-04-23T14:49:27.403Z,96520.10
2019-04-23T14:51:32.268Z,96522.03
2019-04-23T14:55:56.970Z,96522.35
2019-04-23T14:58:10.134Z,96526.94
2019-04-23T15:00:18.680Z,96516.13
2019-04-23T15:04:47.924Z,96515.14
2019-04-23T15:09:18.870Z,96526.47
2019-04-23T15:13:39.279Z,96523.67
2019-04-23T15:16:00.743Z,96519.47
2019-04-23T15:18:09.381Z,96523.16
2019-04-23T15:20:17.655Z,96517.13
2019-04-23T15:22:57.436Z,96513.27
2019-04-23T15:24:40.814Z,96510.56
2019-04-23T15:28:46.732Z,96517.39
2019-04-23T15:31:30.814Z,96514.73
2019-04-23T15:33:35.452Z,96520.65
2019-04-23T15:36:06.628Z,96517.53
2019-04-23T15:38:24.814Z,96514.42
2019-04-23T15:42:26.690Z,96521.80
2019-04-23T15:44:32.514Z,96519.28
2019-04-23T15:46:47.216Z,96519.72
2019-04-23T15:51:20.677Z,96513.56
2019-04-23T15:53:17.983Z,96512.09
2019-04-23T15:55:44.184Z,96513.09
2019-04-23T15:58:09.923Z,96515.23
2019-04-23T16:00:10.753Z,96506.89
2019-04-23T16:01:51.199Z,96513.37
2019-04-23T16:04:03.409Z,96509.91
2019-04-23T16:06:20.952Z,96506.59
2019-04-23T16:11:15.724Z,96506.21
2019-04-23T16:13:31.183Z,96508.26
2019-04-23T16:15:35.538Z,96501.86
2019-04-23T16:18:01.644Z,96502.71
2019-04-23T16:20:25.792Z,96502.71
2019-04-23T16:22:39.676Z,96506.81
2019-04-23T16:24:27.603Z,96507.80
2019-04-23T16:26:58.941Z,96503.44
2019-04-23T16:29:23.380Z,96511.28
2019-04-23T16:31:20.876Z,96502.75
2019-04-23T16:33:23.827Z,96507.73
2019-04-23T16:35:51.132Z,96506.34
2019-04-23T16:44:46.493Z,96506.53
2019-04-23T16:46:58.464Z,96513.55
2019-04-23T16:53:27.514Z,96505.21
2019-04-23T16:55:50.065Z,96503.08
2019-04-23T16:58:01.477Z,96507.53
2019-04-23T17:00:25.948Z,96504.50
2019-04-23T17:02:28.470Z,96508.77
2019-04-23T17:08:57.096Z,96512.96
2019-04-23T17:11:15.690Z,96505.95
2019-04-23T17:15:48.201Z,96510.05
2019-04-23T17:17:56.120Z,96505.47
2019-04-23T17:20:10.285Z,96507.08
2019-04-23T17:22:33.724Z,96509.95
2019-04-23T17:27:02.277Z,96515.45
2019-04-23T17:28:59.739Z,96513.73
2019-04-23T17:31:26.219Z,96512.63
2019-04-23T17:33:29.188Z,96518.15
2019-04-23T17:35:55.611Z,96520.80
2019-04-23T17:38:09.038Z,96513.86
2019-04-23T17:40:17.820Z,96519.27
2019-04-23T17:42:39.329Z,96514.30
2019-04-23T17:49:44.082Z,96515.66
2019-04-23T17:51:46.891Z,96516.61
2019-04-23T17:53:58.294Z,96518.46
2019-04-23T17:56:23.138Z,96523.66
2019-04-23T17:58:23.339Z,96521.65
2019-04-23T18:00:35.901Z,96525.44
2019-04-23T18:05:08.252Z,96534.30
2019-04-23T18:07:19.302Z,96530.12
2019-04-23T18:11:47.596Z,96531.88
2019-04-23T18:16:09.553Z,96540.51
2019-04-23T18:18:32.850Z,96538.89
2019-04-23T18:20:37.827Z,96541.02
2019-04-23T18:25:11.183Z,96545.88
2019-04-23T18:29:47.390Z,96543.84
2019-04-23T18:32:16.748Z,96550.86
2019-04-23T18:35:07.180Z,96548.83
2019-04-23T18:36:59.620Z,96548.70
2019-04-23T18:39:06.291Z,96551.75
2019-04-23T18:41:35.213Z,96558.45
2019-04-23T18:43:29.554Z,96558.96
2019-04-23T18:45:53.914Z,96560.78
2019-04-23T18:48:31.483Z,96558.22
2019-04-23T18:50:39.686Z,96565.02
2019-04-23T18:54:53.977Z,96565.56
2019-04-23T18:59:28.729Z,96576.85
2019-04-23T19:01:30.902Z,96579.84
2019-04-23T19:04:09.867Z,96585.30
2019-04-23T19:06:18.708Z,96587.90
2019-04-23T19:10:57.409Z,96587.22
2019-04-23T19:13:18.865Z,96588.75
2019-04-23T19:15:28.559Z,96591.27
2019-04-23T19:17:46.572Z,96596.06
2019-04-23T19:19:55.653Z,96593.77
2019-04-23T19:24:18.040Z,96595.47
2019-04-23T19:26:55.246Z,96594.23
2019-04-23T19:28:53.039Z,96591.55
2019-04-23T19:31:16.465Z,96592.95
2019-04-23T19:35:57.073Z,96589.37
2019-04-23T19:37:49.597Z,96592.66
2019-04-23T19:39:47.798Z,96594.13
2019-04-23T19:44:16.241Z,96596.53
2019-04-23T19:46:52.278Z,96599.85
2019-04-23T19:53:33.786Z,96595.98
2019-04-23T19:55:23.614Z,96598.05
2019-04-23T19:59:50.574Z,96604.48
2019-04-23T20:02:09.622Z,96600.70
2019-04-23T20:04:04.243Z,96606.41
2019-04-23T20:06:57.018Z,96600.91
2019-04-23T20:08:53.279Z,96603.47
2019-04-23T20:11:04.507Z,96606.67
2019-04-23T20:13:13.401Z,96607.66
2019-04-23T20:15:14.240Z,96605.90
2019-04-23T20:19:44.767Z,96609.04
2019-04-23T20:22:00.725Z,96608.29
2019-04-23T20:24:21.210Z,96611.19
2019-04-23T20:26:37.429Z,96609.29
2019-04-23T20:29:09.744Z,96610.94
2019-04-23T20:35:48.098Z,96612.66
2019-04-23T20:38:27.614Z,96610.56
2019-04-23T20:40:08.624Z,96618.40
2019-04-23T20:42:16.286Z,96615.63
2019-04-23T20:44:53.468Z,96618.63
2019-04-23T20:46:52.364Z,96624.70
2019-04-23T20:49:00.551Z,96620.35
2019-04-23T20:51:16.717Z,96623.59
2019-04-23T20:53:31.096Z,96618.55
2019-04-23T20:55:58.440Z,96629.57
2019-04-23T21:00:08.823Z,96621.59
2019-04-23T21:04:48.674Z,96623.95
2019-04-23T21:06:56.435Z,96631.75
2019-04-23T21:11:24.147Z,96630.86
2019-04-23T21:13:50.621Z,96638.30
2019-04-23T21:15:46.034Z,96634.69
2019-04-23T21:20:24.420Z,96643.59
2019-04-23T21:24:45.876Z,96632.52
2019-04-23T21:26:55.203Z,96641.25
2019-04-23T21:28:58.617Z,96639.47
2019-04-23T21:31:20.478Z,96640.17
2019-04-23T21:33:35.306Z,96640.02
2019-04-23T21:36:02.892Z,96641.37
2019-04-23T21:38:31.733Z,96642.22
2019-04-23T21:42:53.704Z,96641.37
2019-04-23T21:44:57.542Z,96643.84
2019-04-23T21:47:09.945Z,96637.39
2019-04-23T21:49:31.928Z,96638.05
2019-04-23T21:51:46.439Z,96640.67
2019-04-23T21:58:26.199Z,96646.50
2019-04-23T22:00:36.514Z,96649.44
2019-04-23T22:02:47.137Z,96651.02
2019-04-23T22:05:09.268Z,96657.59
2019-04-23T22:07:25.486Z,96653.66
2019-04-23T22:09:22.399Z,96658.40
2019-04-23T22:13:57.922Z,96666.66
2019-04-23T22:16:11.073Z,96667.50
2019-04-23T22:18:12.868Z,96664.22
2019-04-23T22:20:27.737Z,96666.38
2019-04-23T22:22:52.893Z,96661.78
2019-04-23T22:26:58.363Z,96667.07
2019-04-23T22:33:46.916Z,96671.32
2019-04-23T22:40:16.596Z,96680.70
2019-04-23T22:42:57.131Z,96687.60
2019-04-23T22:47:00.673Z,96686.45
2019-04-23T22:49:22.778Z,96684.82
2019-04-23T22:51:35.464Z,96690.10
2019-04-23T22:53:46.597Z,96692.09
2019-04-23T22:55:57.390Z,96696.53
2019-04-23T23:00:19.144Z,96692.14
2019-04-23T23:02:59.445Z,96698.41
2019-04-23T23:09:32.798Z,96706.81
2019-04-23T23:11:47.644Z,96712.58
2019-04-23T23:20:37.967Z,96706.56
2019-04-23T23:22:58.467Z,96704.29
2019-04-23T23:25:04.725Z,96706.61
2019-04-23T23:27:21.343Z,96711.54
2019-04-23T23:29:23.476Z,96709.13
2019-04-23T23:31:39.738Z,96711.73
2019-04-23T23:33:54.216Z,96714.38
2019-04-23T23:36:09.916Z,96716.16
2019-04-23T23:40:30.272Z,96716.15
2019-04-23T23:42:43.399Z,96711.25
2019-04-23T23:45:02.234Z,96720.25
2019-04-23T23:47:09.071Z,96720.58
2019-04-23T23:49:24.036Z,96725.00
2019-04-23T23:51:43.498Z,96722.55
2019-04-23T23:54:00.418Z,96723.05
2019-04-23T23:56:04.795Z,96727.44
2019-04-23T23:58:23.058Z,96726.16
